Time;durP1;ratioP1;P1;durP2;ratioP2;P2;SDS_P1;SDS_P2;PMS_P1;PMS_P2;Temp;Humidity;BMP_temperature;BMP_pressure;BME280_temperature;BME280_humidity;BME280_pressure;Samples;Min_cycle;Max_cycle;Signal;HPM_P1;HPM_P2
2022/10/24 00:00:57;;;;;;;24.25;16.20;;;7.20;99.90;;;;;;5116647;28;20488;-80
2022/10/24 00:03:23;;;;;;;26.75;16.13;;;7.20;99.90;;;;;;5116726;28;20081;-78
2022/10/24 00:05:49;;;;;;;24.05;15.75;;;7.20;99.90;;;;;;5136660;27;20033;-80
2022/10/24 00:08:15;;;;;;;23.13;15.30;;;7.20;99.90;;;;;;5135995;27;20486;-78
2022/10/24 00:10:46;;;;;;;25.50;15.93;;;7.20;99.90;;;;;;5125213;27;20020;-79
2022/10/24 00:13:14;;;;;;;24.38;15.57;;;7.20;99.90;;;;;;5116175;28;20111;-80
2022/10/24 00:15:44;;;;;;;27.42;16.05;;;7.20;99.90;;;;;;5116097;27;20027;-80
2022/10/24 00:18:09;;;;;;;21.42;15.43;;;7.20;99.90;;;;;;5136933;27;20114;-80
2022/10/24 00:20:37;;;;;;;25.40;15.60;;;7.20;99.90;;;;;;5135556;27;20552;-78
2022/10/24 00:23:03;;;;;;;23.38;16.15;;;7.30;99.90;;;;;;5122197;27;20048;-78
2022/10/24 00:25:28;;;;;;;21.65;14.68;;;7.20;99.90;;;;;;5116251;28;20019;-78
2022/10/24 00:27:54;;;;;;;22.67;14.63;;;7.20;99.90;;;;;;5119752;27;20049;-78
2022/10/24 00:30:19;;;;;;;27.98;16.10;;;7.10;99.90;;;;;;5135412;27;20023;-78
2022/10/24 00:32:45;;;;;;;22.33;14.32;;;7.10;99.90;;;;;;5136526;27;20015;-80
2022/10/24 00:35:11;;;;;;;26.13;17.45;;;7.10;99.90;;;;;;5120806;27;20024;-78
2022/10/24 00:37:36;;;;;;;26.90;18.00;;;7.10;99.90;;;;;;5130949;27;20028;-77
2022/10/24 00:40:04;;;;;;;32.17;18.00;;;7.00;99.90;;;;;;5130217;27;20088;-77
2022/10/24 00:42:30;;;;;;;32.70;21.88;;;7.00;99.90;;;;;;5115853;28;20015;-79
2022/10/24 00:44:55;;;;;;;24.67;17.05;;;7.00;99.90;;;;;;5115906;28;20042;-77
2022/10/24 00:47:24;;;;;;;19.58;14.85;;;7.00;99.90;;;;;;5115729;28;20465;-80
2022/10/24 00:49:59;;;;;;;20.30;15.23;;;7.00;99.90;;;;;;5114475;28;20028;-80
2022/10/24 00:52:30;;;;;;;21.42;14.07;;;7.00;99.90;;;;;;5122424;27;20106;-78
2022/10/24 00:54:58;;;;;;;23.50;15.27;;;7.00;99.90;;;;;;5135092;27;20029;-78
2022/10/24 00:57:30;;;;;;;20.50;14.02;;;7.00;99.90;;;;;;5136216;27;20023;-80
2022/10/24 01:00:00;;;;;;;21.30;14.93;;;7.00;99.90;;;;;;5095300;28;20036;-80
2022/10/24 01:02:26;;;;;;;23.92;15.35;;;7.00;99.90;;;;;;5102868;27;20106;-78
2022/10/24 01:04:53;;;;;;;26.88;15.90;;;7.00;99.90;;;;;;5115638;28;20078;-79
2022/10/24 01:08:04;;;;;;;19.10;13.15;;;7.00;99.90;;;;;;5115456;28;20031;-79
2022/10/24 01:10:43;;;;;;;31.15;18.67;;;7.00;99.90;;;;;;5052683;28;20115;-78
2022/10/24 01:13:26;;;;;;;20.83;15.48;;;7.00;99.90;;;;;;5093158;28;20135;-79
2022/10/24 01:16:07;;;;;;;19.70;12.85;;;7.00;99.90;;;;;;5135545;27;20114;-79
2022/10/24 01:18:38;;;;;;;21.45;14.05;;;7.00;99.90;;;;;;5135847;27;20025;-79
2022/10/24 01:21:29;;;;;;;18.92;12.95;;;7.00;99.90;;;;;;5122068;27;20396;-78
2022/10/24 01:24:07;;;;;;;15.48;11.65;;;7.10;99.90;;;;;;5115428;28;20128;-78
2022/10/24 01:26:46;;;;;;;18.67;11.90;;;7.10;99.90;;;;;;5122727;27;20019;-78
2022/10/24 01:29:30;;;;;;;16.65;11.75;;;7.10;99.90;;;;;;5135990;27;20020;-79
2022/10/24 01:32:04;;;;;;;19.15;11.63;;;7.10;99.90;;;;;;5130283;27;20099;-77
2022/10/24 01:34:43;;;;;;;16.55;11.25;;;7.10;99.90;;;;;;5114975;28;20024;-80
2022/10/24 01:37:16;;;;;;;16.88;11.60;;;7.20;99.90;;;;;;5125126;27;20027;-78
2022/10/24 01:39:48;;;;;;;21.98;13.13;;;7.30;99.90;;;;;;5116362;27;20057;-78
2022/10/24 01:42:18;;;;;;;25.92;16.98;;;7.30;99.90;;;;;;5113511;28;20028;-79
2022/10/24 01:44:49;;;;;;;24.10;15.18;;;7.20;99.90;;;;;;5125384;27;20047;-79
2022/10/24 01:47:25;;;;;;;20.25;14.40;;;7.20;99.90;;;;;;5115846;27;20023;-77
2022/10/24 01:49:58;;;;;;;19.88;12.80;;;7.10;99.90;;;;;;5117785;27;20422;-79
2022/10/24 01:52:25;;;;;;;;;;;7.00;99.90;;;;;;5134347;27;20019;-79
2022/10/24 01:54:51;;;;;;;25.25;17.17;;;7.00;99.90;;;;;;5135192;27;19995;-78
2022/10/24 01:57:17;;;;;;;25.90;17.63;;;6.80;99.90;;;;;;5119591;27;20016;-78
2022/10/24 01:59:45;;;;;;;33.67;17.52;;;6.80;99.90;;;;;;5114464;28;20043;-77
2022/10/24 02:02:22;;;;;;;25.23;16.40;;;6.70;99.90;;;;;;5118935;27;20047;-77
2022/10/24 02:04:57;;;;;;;25.63;16.10;;;6.70;99.90;;;;;;5135279;27;20483;-77
2022/10/24 02:07:24;;;;;;;23.58;16.05;;;6.60;99.90;;;;;;5133595;27;20046;-77
2022/10/24 02:09:54;;;;;;;29.23;18.55;;;6.60;99.90;;;;;;5114735;28;20015;-79
2022/10/24 02:12:23;;;;;;;33.15;20.85;;;6.60;99.90;;;;;;5114558;28;20077;-77
2022/10/24 02:14:55;;;;;;;30.27;19.17;;;6.60;99.90;;;;;;5124098;27;20050;-79
2022/10/24 02:17:21;;;;;;;29.83;21.55;;;6.50;99.90;;;;;;5134778;27;20065;-79
2022/10/24 02:19:47;;;;;;;27.13;18.55;;;6.50;99.90;;;;;;5131867;27;20400;-77
2022/10/24 02:22:41;;;;;;;30.35;20.08;;;6.50;99.90;;;;;;5114151;28;20473;-79
2022/10/24 02:25:18;;;;;;;33.40;19.38;;;6.50;99.90;;;;;;5114232;28;20047;-79
2022/10/24 02:27:48;;;;;;;23.38;15.98;;;6.50;99.90;;;;;;5132156;27;20492;-77
2022/10/24 02:30:18;;;;;;;29.15;17.70;;;6.50;99.90;;;;;;5134632;27;20098;-79
2022/10/24 02:32:52;;;;;;;27.95;16.77;;;6.50;99.90;;;;;;5123881;27;20028;-77
2022/10/24 02:35:22;;;;;;;25.60;16.73;;;6.50;99.90;;;;;;5113949;28;20048;-79
2022/10/24 02:37:51;;;;;;;23.25;16.20;;;6.50;99.90;;;;;;5126725;27;20098;-79
2022/10/24 02:40:19;;;;;;;25.17;15.27;;;6.50;99.90;;;;;;5113853;28;20047;-79
2022/10/24 02:42:47;;;;;;;25.08;15.98;;;6.50;99.90;;;;;;5113900;28;20028;-78
2022/10/24 02:45:14;;;;;;;25.02;17.15;;;6.50;99.90;;;;;;5125982;28;20080;-77
2022/10/24 02:47:43;;;;;;;26.63;18.65;;;6.50;99.90;;;;;;5113784;28;20012;-77
2022/10/24 02:50:09;;;;;;;29.75;18.50;;;6.50;99.90;;;;;;5118100;28;20027;-78
2022/10/24 02:52:37;;;;;;;27.27;17.85;;;6.50;99.90;;;;;;5134274;28;20038;-80
2022/10/24 02:55:04;;;;;;;30.55;20.60;;;6.40;99.90;;;;;;5132975;28;20087;-78
2022/10/24 02:57:30;;;;;;;29.25;19.25;;;6.50;99.90;;;;;;5116917;27;20027;-77
2022/10/24 02:59:55;;;;;;;30.40;17.50;;;6.40;99.90;;;;;;5113604;28;20509;-77
2022/10/24 03:02:22;;;;;;;26.77;16.30;;;6.40;99.90;;;;;;5117532;28;20019;-79
2022/10/24 03:04:47;;;;;;;22.10;14.60;;;6.50;99.90;;;;;;5113426;28;20023;-79
2022/10/24 03:07:13;;;;;;;20.15;11.93;;;6.50;99.90;;;;;;5112267;28;20020;-79
2022/10/24 03:09:39;;;;;;;20.42;12.20;;;6.50;99.90;;;;;;5131879;28;20560;-77
2022/10/24 03:12:05;;;;;;;18.25;12.23;;;6.50;99.90;;;;;;5134223;28;20068;-79
2022/10/24 03:14:31;;;;;;;18.77;11.57;;;6.50;99.90;;;;;;5125231;28;20066;-79
2022/10/24 03:16:56;;;;;;;19.58;12.40;;;6.60;99.90;;;;;;5112309;28;20464;-77
2022/10/24 03:19:22;;;;;;;20.92;12.95;;;6.60;99.90;;;;;;5112245;28;20028;-77
2022/10/24 03:21:48;;;;;;;18.67;12.48;;;6.60;99.90;;;;;;5131850;28;20026;-77
2022/10/24 03:24:14;;;;;;;21.58;13.25;;;6.60;99.90;;;;;;5133931;28;20023;-77
2022/10/24 03:26:39;;;;;;;18.90;12.15;;;6.70;99.90;;;;;;5124093;28;20025;-77
2022/10/24 03:29:05;;;;;;;28.30;14.20;;;6.70;99.90;;;;;;5112062;28;20072;-79
2022/10/24 03:31:31;;;;;;;27.05;17.00;;;6.70;99.90;;;;;;5113603;28;20098;-77
2022/10/24 03:33:57;;;;;;;31.73;18.63;;;6.60;99.90;;;;;;5115331;28;20123;-77
2022/10/24 03:36:23;;;;;;;34.83;18.63;;;6.50;99.90;;;;;;5127085;28;20018;-77
2022/10/24 03:38:48;;;;;;;35.67;18.52;;;6.50;99.90;;;;;;5123050;28;20043;-79
2022/10/24 03:41:14;;;;;;;34.53;18.95;;;6.50;99.90;;;;;;5133767;28;20039;-79
2022/10/24 03:43:40;;;;;;;46.50;23.73;;;6.50;99.90;;;;;;5124744;28;20023;-78
2022/10/24 03:46:05;;;;;;;28.05;16.52;;;6.50;99.90;;;;;;5123671;28;20016;-78
2022/10/24 03:48:31;;;;;;;26.05;16.30;;;6.60;99.90;;;;;;5111904;28;20039;-78
2022/10/24 03:50:57;;;;;;;31.58;18.02;;;6.60;99.90;;;;;;5129286;27;20038;-80
2022/10/24 03:53:23;;;;;;;34.20;20.70;;;6.60;99.90;;;;;;5136204;27;20052;-79
2022/10/24 03:55:48;;;;;;;37.40;21.75;;;6.60;99.90;;;;;;5133242;27;20022;-79
2022/10/24 03:58:14;;;;;;;29.40;19.23;;;6.70;99.90;;;;;;5115477;28;20020;-77
2022/10/24 04:00:41;;;;;;;34.22;20.63;;;6.70;99.90;;;;;;5116661;28;20059;-78
2022/10/24 04:03:08;;;;;;;31.02;19.25;;;6.70;99.90;;;;;;5129230;27;20090;-79
2022/10/24 04:05:34;;;;;;;29.27;16.20;;;6.80;99.90;;;;;;5137191;27;20050;-78
2022/10/24 04:08:00;;;;;;;24.70;15.13;;;6.80;99.90;;;;;;5131563;27;20019;-77
2022/10/24 04:10:26;;;;;;;25.70;15.25;;;6.80;99.90;;;;;;5116784;28;20020;-78
2022/10/24 04:12:52;;;;;;;21.10;15.52;;;6.90;99.90;;;;;;5116565;28;20024;-78
2022/10/24 04:15:17;;;;;;;21.88;13.65;;;6.90;99.90;;;;;;5130442;27;20488;-77
2022/10/24 04:17:43;;;;;;;21.85;13.93;;;6.90;99.90;;;;;;5135725;27;20455;-77
2022/10/24 04:20:09;;;;;;;21.30;13.98;;;7.00;99.90;;;;;;5131153;27;20112;-79
2022/10/24 04:22:35;;;;;;;23.10;15.48;;;7.00;99.90;;;;;;5116416;28;20381;-80
2022/10/24 04:25:00;;;;;;;27.00;16.42;;;7.00;99.90;;;;;;5116204;28;20019;-77
2022/10/24 04:27:26;;;;;;;21.75;15.13;;;7.00;99.90;;;;;;5131478;27;20068;-78
2022/10/24 04:29:52;;;;;;;21.85;13.15;;;7.10;99.90;;;;;;5136776;27;20372;-78
2022/10/24 04:32:17;;;;;;;26.20;14.43;;;7.10;99.90;;;;;;5130166;27;20028;-79
2022/10/24 04:34:43;;;;;;;24.75;15.65;;;7.20;99.90;;;;;;5116017;28;20070;-78
2022/10/24 04:37:08;;;;;;;28.58;14.88;;;7.20;99.90;;;;;;5128491;27;20015;-78
2022/10/24 04:39:34;;;;;;;22.55;15.93;;;7.30;99.90;;;;;;5118607;27;20089;-79
2022/10/24 04:42:00;;;;;;;23.10;15.35;;;7.30;99.90;;;;;;5114753;28;20035;-78
2022/10/24 04:44:25;;;;;;;22.35;14.90;;;7.40;99.90;;;;;;5122113;27;20030;-78
2022/10/24 04:46:51;;;;;;;23.38;14.43;;;7.40;99.90;;;;;;5119457;27;20427;-78
2022/10/24 04:49:17;;;;;;;23.85;14.60;;;7.30;99.90;;;;;;5115891;28;20405;-78
2022/10/24 04:51:42;;;;;;;25.83;14.90;;;7.30;99.90;;;;;;5134659;27;20027;-79
2022/10/24 04:54:08;;;;;;;26.30;15.80;;;7.30;99.90;;;;;;5134993;27;20468;-78
2022/10/24 04:56:33;;;;;;;24.05;14.90;;;7.30;99.90;;;;;;5127014;27;20015;-80
2022/10/24 04:58:59;;;;;;;24.10;14.55;;;7.40;99.90;;;;;;5115663;28;21682;-78
2022/10/24 05:01:25;;;;;;;24.55;14.88;;;7.40;99.90;;;;;;5115102;28;20396;-77
2022/10/24 05:03:51;;;;;;;20.95;15.23;;;7.40;99.90;;;;;;5133673;27;20019;-79
2022/10/24 05:06:16;;;;;;;27.77;17.25;;;7.50;99.90;;;;;;5114700;28;20048;-79
2022/10/24 05:08:42;;;;;;;29.90;18.17;;;7.60;99.90;;;;;;5125647;27;20027;-78
2022/10/24 05:11:10;;;;;;;26.73;16.65;;;7.60;99.90;;;;;;5136067;27;20494;-79
2022/10/24 05:13:40;;;;;;;26.98;16.52;;;7.70;99.90;;;;;;5126240;27;20076;-80
2022/10/24 05:16:06;;;;;;;25.60;15.23;;;7.70;99.90;;;;;;5114003;27;20430;-79
2022/10/24 05:18:40;;;;;;;23.58;15.43;;;7.60;99.90;;;;;;5101965;27;20111;-81
2022/10/24 05:21:06;;;;;;;30.02;19.55;;;7.50;99.90;;;;;;5114941;27;20169;-81
2022/10/24 05:23:32;;;;;;;27.08;15.85;;;7.40;99.90;;;;;;5127027;27;20110;-79
2022/10/24 05:25:57;;;;;;;30.60;17.33;;;7.40;99.90;;;;;;5132376;27;20016;-78
2022/10/24 05:28:23;;;;;;;40.70;23.23;;;7.40;99.90;;;;;;5134110;27;20054;-81
2022/10/24 05:30:48;;;;;;;44.55;26.83;;;7.30;99.90;;;;;;5114462;27;20020;-79
2022/10/24 05:33:14;;;;;;;41.88;23.73;;;7.30;99.90;;;;;;5125691;27;20043;-81
2022/10/24 05:35:40;;;;;;;32.40;19.30;;;7.30;99.90;;;;;;5131515;27;20034;-81
2022/10/24 05:38:06;;;;;;;33.45;18.80;;;7.40;99.90;;;;;;5113377;27;20111;-79
2022/10/24 05:40:32;;;;;;;28.05;16.10;;;7.40;99.90;;;;;;5120007;27;20071;-80
2022/10/24 05:42:57;;;;;;;27.75;16.95;;;7.40;99.90;;;;;;5132515;27;20111;-79
2022/10/24 05:45:23;;;;;;;38.47;19.00;;;7.40;99.90;;;;;;5127020;27;20026;-79
2022/10/24 05:47:48;;;;;;;33.13;17.00;;;7.50;99.90;;;;;;5114210;28;20400;-81
2022/10/24 05:50:15;;;;;;;32.42;18.67;;;7.60;99.90;;;;;;5119217;27;20033;-78
2022/10/24 05:52:41;;;;;;;27.90;17.25;;;7.60;99.90;;;;;;5126436;27;20026;-80
2022/10/24 05:55:08;;;;;;;29.70;17.48;;;7.60;99.90;;;;;;5112451;27;20027;-77
2022/10/24 05:57:36;;;;;;;30.05;17.83;;;7.70;99.90;;;;;;5121766;27;20530;-78
2022/10/24 06:00:04;;;;;;;35.85;19.77;;;7.70;99.90;;;;;;5113140;27;20034;-75
2022/10/24 06:02:29;;;;;;;33.65;19.33;;;7.70;99.90;;;;;;5114329;27;20028;-78
2022/10/24 06:04:56;;;;;;;33.13;19.63;;;7.70;99.90;;;;;;5111960;28;20073;-75
2022/10/24 06:07:21;;;;;;;36.00;21.35;;;7.80;99.90;;;;;;5110168;28;20026;-77
2022/10/24 06:09:47;;;;;;;37.22;22.13;;;7.80;99.90;;;;;;5110254;28;20143;-77
2022/10/24 06:12:13;;;;;;;42.45;22.20;;;7.80;99.90;;;;;;5108715;28;20031;-77
2022/10/24 06:14:38;;;;;;;39.13;21.25;;;7.90;99.90;;;;;;5111515;28;20027;-77
2022/10/24 06:17:05;;;;;;;45.72;26.83;;;7.90;99.90;;;;;;5123874;27;20027;-79
2022/10/24 06:19:31;;;;;;;60.70;31.83;;;8.00;99.90;;;;;;5114922;27;20031;-78
2022/10/24 06:21:57;;;;;;;56.45;30.23;;;8.10;99.90;;;;;;5111105;28;20047;-75
2022/10/24 06:24:23;;;;;;;68.43;34.38;;;8.20;99.90;;;;;;5112014;28;20024;-75
2022/10/24 06:26:48;;;;;;;71.32;36.47;;;8.30;99.90;;;;;;5111518;28;20019;-75
2022/10/24 06:29:14;;;;;;;74.43;38.45;;;8.40;99.90;;;;;;5116831;27;20725;-75
2022/10/24 06:31:39;;;;;;;76.72;42.78;;;8.50;99.90;;;;;;5131954;27;20025;-75
2022/10/24 06:34:05;;;;;;;79.05;44.85;;;8.60;99.90;;;;;;5131817;27;20460;-79
2022/10/24 06:36:30;;;;;;;76.68;41.17;;;8.60;99.90;;;;;;5123185;27;20011;-80
2022/10/24 06:38:56;;;;;;;81.68;46.05;;;8.70;99.90;;;;;;5112455;28;20130;-80
2022/10/24 06:41:22;;;;;;;84.88;47.08;;;8.80;99.90;;;;;;5113077;28;20034;-75
2022/10/24 06:43:52;;;;;;;83.70;45.38;;;8.80;99.90;;;;;;5095487;28;20397;-75
2022/10/24 06:46:22;;;;;;;86.93;46.30;;;8.90;99.90;;;;;;5112147;28;20019;-74
2022/10/24 06:48:48;;;;;;;90.93;51.85;;;9.00;99.90;;;;;;5112995;28;20384;-75
2022/10/24 06:51:15;;;;;;;93.00;51.75;;;9.10;99.90;;;;;;5111908;28;20031;-75
2022/10/24 06:53:41;;;;;;;83.97;46.20;;;9.20;99.90;;;;;;5111692;28;20054;-75
2022/10/24 06:56:07;;;;;;;94.72;52.40;;;9.30;99.90;;;;;;5112063;28;20055;-75
2022/10/24 06:58:37;;;;;;;93.25;51.33;;;9.40;99.90;;;;;;5113198;28;20476;-75
2022/10/24 07:01:19;;;;;;;98.55;54.03;;;9.40;99.90;;;;;;5113178;28;20040;-75
2022/10/24 07:03:45;;;;;;;101.43;59.87;;;9.50;99.90;;;;;;5111644;28;20119;-75
2022/10/24 07:06:26;;;;;;;101.47;57.55;;;9.70;99.90;;;;;;5113156;28;20110;-75
2022/10/24 07:08:54;;;;;;;98.13;55.25;;;9.80;99.90;;;;;;5111570;28;20579;-75
2022/10/24 07:11:20;;;;;;;90.57;51.17;;;10.00;99.90;;;;;;5113162;28;20027;-75
2022/10/24 07:13:46;;;;;;;81.97;49.08;;;10.10;99.90;;;;;;5128330;28;20077;-75
2022/10/24 07:16:11;;;;;;;86.30;49.55;;;10.30;99.90;;;;;;5111069;28;20051;-74
2022/10/24 07:18:37;;;;;;;71.90;42.58;;;10.30;99.90;;;;;;5109584;28;20366;-75
2022/10/24 07:21:09;;;;;;;74.10;42.40;;;10.30;99.90;;;;;;5109817;28;20035;-75
2022/10/24 07:23:35;;;;;;;74.40;44.15;;;10.40;99.90;;;;;;5110930;28;20027;-75
2022/10/24 07:26:06;;;;;;;75.15;44.78;;;10.40;99.90;;;;;;5127914;27;20039;-80
2022/10/24 07:28:33;;;;;;;70.57;42.55;;;10.50;99.90;;;;;;5092305;28;20072;-75
2022/10/24 07:31:00;;;;;;;63.03;40.30;;;10.60;99.90;;;;;;5093934;28;20047;-76
2022/10/24 07:33:25;;;;;;;63.10;38.13;;;10.70;99.90;;;;;;5091480;28;20401;-74
2022/10/24 07:35:51;;;;;;;62.95;38.88;;;10.90;99.90;;;;;;5092624;28;20023;-78
2022/10/24 07:38:16;;;;;;;60.10;38.22;;;11.10;99.90;;;;;;5093192;28;20056;-75
2022/10/24 07:40:42;;;;;;;55.45;34.67;;;11.30;99.90;;;;;;5096552;28;20043;-75
2022/10/24 07:43:08;;;;;;;55.80;34.92;;;11.40;99.90;;;;;;5095372;28;20032;-75
2022/10/24 07:45:34;;;;;;;53.70;32.58;;;11.50;99.90;;;;;;5125694;27;20023;-80
2022/10/24 07:48:00;;;;;;;114.90;65.97;;;11.60;99.90;;;;;;5115863;28;20077;-80
2022/10/24 07:50:26;;;;;;;63.17;39.25;;;11.90;99.90;;;;;;5116134;28;20031;-79
2022/10/24 07:52:52;;;;;;;95.95;67.40;;;12.00;99.90;;;;;;5116458;28;20171;-75
2022/10/24 07:55:17;;;;;;;70.20;44.58;;;12.20;99.90;;;;;;5115237;28;20031;-79
2022/10/24 07:57:43;;;;;;;52.40;33.25;;;12.40;99.90;;;;;;5116534;28;20020;-75
2022/10/24 08:00:09;;;;;;;351.35;185.00;;;12.60;99.90;;;;;;5116044;28;20504;-75
2022/10/24 08:02:35;;;;;;;231.57;119.15;;;12.70;99.90;;;;;;5116285;28;20165;-75
2022/10/24 08:05:00;;;;;;;230.50;113.63;;;12.80;99.90;;;;;;5116166;28;20176;-75
2022/10/24 08:07:26;;;;;;;63.25;34.55;;;13.00;99.90;;;;;;5115152;28;20016;-75
2022/10/24 08:09:51;;;;;;;42.38;26.45;;;13.10;99.90;;;;;;5116052;28;20035;-76
2022/10/24 08:12:17;;;;;;;47.40;25.90;;;13.10;99.90;;;;;;5116508;28;20051;-80
2022/10/24 08:14:43;;;;;;;53.80;31.83;;;13.20;99.90;;;;;;5131790;27;20020;-80
2022/10/24 08:17:09;;;;;;;95.10;53.08;;;13.30;99.90;;;;;;5116310;28;20436;-75
2022/10/24 08:19:35;;;;;;;54.88;27.05;;;13.30;99.90;;;;;;5115699;28;20112;-80
2022/10/24 08:22:02;;;;;;;44.85;24.48;;;13.40;99.90;;;;;;5114896;28;20024;-75
2022/10/24 08:24:28;;;;;;;30.77;20.35;;;13.60;99.90;;;;;;5114818;28;20639;-76
2022/10/24 08:26:55;;;;;;;33.10;20.20;;;13.80;99.90;;;;;;5105709;28;20048;-76
2022/10/24 08:29:22;;;;;;;57.55;38.72;;;14.10;99.90;;;;;;5095710;28;20016;-79
2022/10/24 08:31:49;;;;;;;26.40;18.35;;;14.30;99.90;;;;;;5094405;28;20354;-79
2022/10/24 08:34:15;;;;;;;25.92;15.77;;;14.60;99.90;;;;;;5095513;28;20020;-79
2022/10/24 08:36:41;;;;;;;33.50;16.00;;;14.70;99.90;;;;;;5103938;28;20159;-76
2022/10/24 08:39:07;;;;;;;25.45;15.40;;;14.80;99.90;;;;;;5131582;27;20052;-75
2022/10/24 08:41:45;;;;;;;21.33;14.40;;;14.80;99.90;;;;;;5114746;28;20206;-75
2022/10/24 08:44:27;;;;;;;19.40;14.13;;;14.80;99.90;;;;;;5115992;28;20095;-79
2022/10/24 08:47:17;;;;;;;24.83;17.95;;;14.80;99.90;;;;;;5116132;28;20019;-76
2022/10/24 08:50:04;;;;;;;26.58;14.77;;;14.80;99.90;;;;;;5114382;28;20388;-76
2022/10/24 08:52:39;;;;;;;37.22;18.20;;;14.80;99.90;;;;;;5131213;27;20487;-75
2022/10/24 08:55:18;;;;;;;21.67;13.38;;;14.80;99.90;;;;;;5114230;28;20089;-79
2022/10/24 08:57:49;;;;;;;17.35;12.13;;;14.80;99.90;;;;;;5114334;28;20016;-75
2022/10/24 09:00:21;;;;;;;17.77;12.18;;;14.90;99.90;;;;;;5115147;28;20077;-75
2022/10/24 09:03:05;;;;;;;;;;;15.00;99.90;;;;;;5114485;28;20015;-79
2022/10/24 09:05:41;;;;;;;19.90;12.30;;;15.00;99.90;;;;;;5113792;28;19904;-76
2022/10/24 09:08:32;;;;;;;19.65;12.75;;;15.10;99.90;;;;;;5114251;28;20015;-76
2022/10/24 09:11:04;;;;;;;28.08;16.08;;;15.20;99.90;;;;;;5114252;28;20028;-76
2022/10/24 09:13:34;;;;;;;24.30;14.93;;;15.30;99.90;;;;;;5113711;28;20473;-79
2022/10/24 09:16:00;;;;;;;19.27;11.63;;;15.30;99.90;;;;;;5092231;28;20023;-76
2022/10/24 09:18:37;;;;;;;14.63;10.73;;;15.40;99.90;;;;;;5094475;28;20032;-79
2022/10/24 09:21:07;;;;;;;16.40;10.30;;;15.50;99.90;;;;;;5112903;28;20110;-76
2022/10/24 09:23:36;;;;;;;14.00;10.20;;;15.50;99.90;;;;;;5101667;28;20105;-76
2022/10/24 09:26:03;;;;;;;15.70;9.18;;;15.60;99.90;;;;;;5094711;28;20073;-76
2022/10/24 09:28:29;;;;;;;13.23;8.63;;;15.60;99.90;;;;;;5092724;28;20024;-76
2022/10/24 09:30:55;;;;;;;9.88;6.95;;;15.70;99.90;;;;;;5092979;28;20477;-79
2022/10/24 09:33:48;;;;;;;12.43;7.78;;;15.70;99.90;;;;;;5093078;28;20043;-79
2022/10/24 09:36:14;;;;;;;;;;;15.70;99.90;;;;;;5098445;28;20032;-76
2022/10/24 09:38:42;;;;;;;14.25;8.35;;;15.70;99.90;;;;;;5113086;28;19968;-75
2022/10/24 09:41:27;;;;;;;9.23;7.13;;;15.60;99.90;;;;;;5088140;28;20135;-76
2022/10/24 09:43:58;;;;;;;12.07;7.20;;;15.60;99.90;;;;;;5108422;28;20012;-76
2022/10/24 09:46:34;;;;;;;9.18;6.70;;;15.60;99.90;;;;;;5092818;28;20016;-79
2022/10/24 09:49:21;;;;;;;8.57;6.30;;;15.60;99.90;;;;;;5092747;28;20020;-78
2022/10/24 09:51:58;;;;;;;7.78;6.50;;;15.60;99.90;;;;;;5093712;28;20484;-79
2022/10/24 09:54:27;;;;;;;9.60;6.43;;;15.60;99.90;;;;;;5091798;28;20055;-76
2022/10/24 09:57:03;;;;;;;10.38;6.18;;;15.60;99.90;;;;;;5093741;28;20095;-75
2022/10/24 09:59:35;;;;;;;11.02;6.22;;;15.60;99.90;;;;;;5093959;28;20377;-78
2022/10/24 10:02:18;;;;;;;37.08;27.52;;;15.60;99.90;;;;;;5092856;28;20039;-78
2022/10/24 10:04:44;;;;;;;;;;;15.60;99.90;;;;;;5094310;28;20102;-78
2022/10/24 10:07:16;;;;;;;12.90;6.90;;;15.60;99.90;;;;;;5093916;28;19904;-76
2022/10/24 10:09:53;;;;;;;9.60;6.63;;;15.70;99.90;;;;;;5093552;28;20031;-79
2022/10/24 10:12:31;;;;;;;9.40;6.32;;;15.70;99.90;;;;;;5093675;28;20028;-79
2022/10/24 10:14:59;;;;;;;13.82;8.75;;;15.80;99.90;;;;;;5092318;28;20042;-79
2022/10/24 10:17:29;;;;;;;16.27;9.35;;;15.90;99.90;;;;;;5091945;28;20031;-79
2022/10/24 10:19:55;;;;;;;10.27;8.07;;;16.00;99.90;;;;;;5089122;28;20056;-79
2022/10/24 10:22:31;;;;;;;9.15;6.00;;;16.10;99.90;;;;;;5091543;28;20046;-76
2022/10/24 10:24:58;;;;;;;8.30;6.95;;;16.10;99.90;;;;;;5093300;28;20069;-79
2022/10/24 10:27:37;;;;;;;8.90;5.80;;;16.20;99.90;;;;;;5093489;28;20050;-79
2022/10/24 10:30:16;;;;;;;8.80;5.88;;;16.20;99.90;;;;;;5092414;28;20048;-76
2022/10/24 10:33:05;;;;;;;10.43;6.68;;;16.20;99.90;;;;;;5093652;28;20020;-79
2022/10/24 10:35:35;;;;;;;10.57;5.95;;;16.30;99.90;;;;;;5092030;28;20035;-79
2022/10/24 10:38:18;;;;;;;12.48;6.00;;;16.40;99.90;;;;;;5091615;28;20465;-79
2022/10/24 10:40:47;;;;;;;10.00;5.45;;;16.50;99.90;;;;;;5084166;28;20039;-76
2022/10/24 10:43:21;;;;;;;7.63;4.72;;;16.70;99.90;;;;;;5087665;28;20024;-76
2022/10/24 10:46:10;;;;;;;11.10;5.18;;;16.90;99.90;;;;;;5087823;28;20519;-76
2022/10/24 10:48:58;;;;;;;6.20;4.57;;;17.00;99.90;;;;;;5081482;28;20048;-79
2022/10/24 10:51:40;;;;;;;10.90;4.35;;;17.30;99.90;;;;;;5074876;28;20028;-79
2022/10/24 10:54:24;;;;;;;5.55;4.22;;;17.30;99.90;;;;;;5085998;28;20070;-79
2022/10/24 10:56:52;;;;;;;6.72;3.67;;;17.40;99.90;;;;;;5086319;28;20503;-75
2022/10/24 11:00:07;;;;;;;7.15;3.95;;;17.50;99.90;;;;;;5095690;28;20026;-79
2022/10/24 11:02:49;;;;;;;7.53;4.18;;;17.50;99.90;;;;;;5097693;28;20366;-78
2022/10/24 11:05:44;;;;;;;5.65;4.10;;;17.60;99.90;;;;;;5095936;28;20028;-78
2022/10/24 11:08:16;;;;;;;11.77;4.57;;;17.70;99.90;;;;;;5095877;28;20107;-75
2022/10/24 11:11:05;;;;;;;14.93;4.40;;;17.70;99.90;;;;;;5099586;28;20020;-78
2022/10/24 11:13:56;;;;;;;7.68;4.75;;;17.70;99.90;;;;;;5095172;28;20016;-78
2022/10/24 11:16:26;;;;;;;5.85;4.00;;;17.80;99.90;;;;;;5097043;28;20412;-78
2022/10/24 11:18:55;;;;;;;8.18;4.45;;;17.90;99.90;;;;;;5094714;28;20541;-78
2022/10/24 11:21:24;;;;;;;7.63;4.10;;;18.00;99.90;;;;;;5090013;28;20042;-75
2022/10/24 11:23:54;;;;;;;7.50;4.05;;;18.10;99.90;;;;;;5090169;28;20016;-75
2022/10/24 11:26:38;;;;;;;6.28;4.13;;;18.20;99.90;;;;;;5091411;28;20024;-75
2022/10/24 11:29:34;;;;;;;6.28;4.53;;;18.30;99.90;;;;;;5083868;28;20034;-78
2022/10/24 11:32:05;;;;;;;8.05;3.67;;;18.40;99.90;;;;;;5082829;28;20034;-76
2022/10/24 11:34:41;;;;;;;6.82;3.70;;;18.50;99.90;;;;;;5097406;28;20020;-75
2022/10/24 11:37:16;;;;;;;7.20;4.10;;;18.50;99.90;;;;;;5095826;28;20024;-78
2022/10/24 11:39:44;;;;;;;4.32;3.28;;;18.60;99.90;;;;;;5096284;28;20052;-76
2022/10/24 11:42:35;;;;;;;5.30;3.53;;;18.50;99.90;;;;;;5095424;28;20046;-78
2022/10/24 11:45:11;;;;;;;5.45;3.42;;;18.50;99.90;;;;;;5096288;28;20535;-76
2022/10/24 11:47:42;;;;;;;4.75;3.92;;;18.40;99.90;;;;;;5094889;28;20024;-76
2022/10/24 11:50:26;;;;;;;4.55;3.78;;;18.40;99.90;;;;;;5094381;28;20024;-76
2022/10/24 11:53:01;;;;;;;6.95;4.13;;;18.50;99.90;;;;;;5096524;28;20520;-76
2022/10/24 11:55:37;;;;;;;5.25;3.40;;;18.60;99.90;;;;;;5096348;28;20030;-78
2022/10/24 11:58:11;;;;;;;5.43;3.80;;;18.70;99.90;;;;;;5095258;28;20048;-75
2022/10/24 12:01:04;;;;;;;7.75;3.78;;;18.70;99.90;;;;;;5092566;28;20042;-78
2022/10/24 12:03:49;;;;;;;5.32;3.55;;;18.80;99.90;;;;;;5094203;28;20016;-78
2022/10/24 12:06:39;;;;;;;4.07;3.28;;;18.80;99.90;;;;;;5102574;28;20512;-79
2022/10/24 12:09:29;;;;;;;5.55;3.28;;;18.90;99.90;;;;;;5085414;28;20026;-78
2022/10/24 12:12:06;;;;;;;5.50;4.03;;;18.90;99.90;;;;;;5090463;28;20433;-76
2022/10/24 12:14:58;;;;;;;11.80;3.45;;;19.00;99.90;;;;;;5091781;28;20024;-78
2022/10/24 12:17:37;;;;;;;6.30;3.97;;;18.90;99.10;;;;;;5092765;28;20032;-76
2022/10/24 12:20:10;;;;;;;4.97;4.03;;;18.90;99.10;;;;;;5094415;28;20021;-76
2022/10/24 12:22:40;;;;;;;4.95;3.22;;;19.00;97.10;;;;;;5086006;28;20558;-76
2022/10/24 12:25:25;;;;;;;10.05;3.80;;;19.00;97.00;;;;;;5086473;28;20032;-76
2022/10/24 12:27:53;;;;;;;4.75;3.22;;;19.00;97.30;;;;;;5085742;28;20489;-76
2022/10/24 12:30:23;;;;;;;7.68;4.43;;;19.10;96.00;;;;;;5087140;28;20512;-76
2022/10/24 12:32:55;;;;;;;8.02;3.65;;;19.10;95.40;;;;;;5091374;28;20077;-78
2022/10/24 12:35:34;;;;;;;9.23;5.47;;;19.10;96.00;;;;;;5095302;28;20020;-76
2022/10/24 12:38:02;;;;;;;5.93;3.88;;;19.10;95.90;;;;;;5083379;28;20038;-78
2022/10/24 12:40:46;;;;;;;7.20;4.03;;;19.20;97.30;;;;;;5094778;28;20189;-78
2022/10/24 12:43:28;;;;;;;4.82;4.13;;;19.20;94.40;;;;;;5083072;28;20032;-78
2022/10/24 12:45:59;;;;;;;6.60;4.07;;;19.20;95.40;;;;;;5079093;28;20138;-78
2022/10/24 12:48:34;;;;;;;7.05;4.18;;;19.20;93.60;;;;;;5086024;28;20036;-76
2022/10/24 12:51:23;;;;;;;8.85;3.47;;;19.20;95.30;;;;;;5092728;28;20032;-76
2022/10/24 12:54:01;;;;;;;7.57;3.95;;;19.30;97.40;;;;;;5092127;28;20024;-76
2022/10/24 12:56:27;;;;;;;7.03;3.88;;;19.30;97.20;;;;;;5092291;28;20031;-76